[source: ADDS]
METAR
EDVE 290550Z 25015KT 9999 FEW026 BKN035 04/00 Q0998

EDDV 290550Z 25014KT 9999 VCSH BKN018 BKN025 04/02 Q0999 TEMPO 25015G25KT

TAF EDDV 290500Z 2906/3006 25015G25KT 9999 BKN020 TEMPO 2910/2914 26020G35KT PROB30 TEMPO 2913/2916 3000 SHSNRA BKN012CB BECMG 2916/2918 26013KT BECMG 3000/3002 24015G25KT TEMPO 3003/3006 BKN012 ETHS 290520Z 26011KT 9000 -SHRA BKN012 03/01 Q0997 GRN

ETHC 290520Z 24016KT 9999 FEW014 BKN016 04/01 Q0998 WHT WHT TEMPO GRN

TAF ETHC 290515Z 2906/2915 23015KT 9999 NSW SCT012 BKN015 TEMPO 2906/2909 24015G28KT 4000 RADZ BKN010 BECMG 2909/2911 24015G25KT 9999 NSW SCT015 BKN025 TEMPO 2909/2915 25018G30KT 4000 SHRA SCT012 BKN020 EDVK 290550Z 24007KT 9999 OVC024 03/M01 Q1001

TAF
TAF EDDV 290500Z 2906/3006 25015G25KT 9999 BKN020 TEMPO 2910/2914 26020G35KT PROB30 TEMPO 2913/2916 3000 SHSNRA BKN012CB BECMG 2916/2918 26013KT BECMG 3000/3002 24015G25KT TEMPO 3003/3006 BKN012

TAF ETHC 290515Z 2906/2915 23015KT 9999 NSW SCT012 BKN015 TEMPO 2906/2909 24015G28KT 4000 RADZ BKN010 BECMG 2909/2911 24015G25KT 9999 NSW SCT015 BKN025 TEMPO 2909/2915 25018G30KT 4000 SHRA SCT012 BKN020

SR / SS: 07:03 / 15:57 UTC (EDVE 2020-01-29)
Jens verstärkt als neuer Fluglehrer ab sofort unser FFG-Fluglehrer-Team. Glückwunsch und viel Erfolg beim Ausbilden! +++ Wir beglückwünschen Sebastian zur bestandenen PPL-Theorie-Prüfung! Weiterhin viel Erfolg bei der Ausbildung! +++ Stefan hat die praktische Prüfung bestanden! Herzlichen Glückwunsch und Always Happy Landings! +++ Ein weiteres Mitglied hat die Prüfung zum Fluglehrer gemeistert. Glückwunsch Nico und viel Erfolg beim Ausbilden! +++ Florian Hansmann ist ab sofort als Fluglehrer für die FFG tätig! Danke für das Engagement und viel Spaß mit deinen zukünftigen Schülern! +++ Willkommen im Verein Michael und viel Erfolg für deine Ausbildung! +++ Herzlich Willkommen bei der FFG Jens! +++ Uwe hat die PPL-Prüfung bestanden! Herzlichen Glückwunsch und Always Happy Landings!! +++ Hallo und herzlich Willkommen Lothar! Wir wünschen viel Spaß und Erfolg für die Ausbildung!

Neues Bild in 60 Sekunden

Letztes NOTAM EDVE
von 11.02.2020 0900Z bis 12.02.2020 1200Z
HEHLINGEN DVOR/DME HLZ 117.30 MHZ/CH120X ON MAINTENANCE. DO NOT USE. DISREGARD ALL SIGNALS.

Letztes NOTAM EDCB
von 01.12.2019 0600Z bis 15.03.2020 1751Z
GRAS RWY 09/27 CLSD.

Letztes NOTAM EDBC
von 23.01.2020 2305Z bis 23.04.2020 2359Z
MET SERVICES (AD WARNINGS, METAR, TAF) NOT AVBL.

Letztes NOTAM EDVM
von 30.11.2019 1100Z bis 29.02.2020 1700Z
GRASS RWY 07/25 CLSD.

Letztes NOTAM EDVI
von 15.12.2019 0000Z bis 29.02.2020 2259Z
AERODROME AVBL PPR. PPR REQ TEL. +49(0)163-5744126 OR +49(0)5271-6999060.

Letztes NOTAM EDDV
von 13.02.2020 0900Z bis 13.02.2020 1200Z
WARBURG DVOR/DME WRB 113.70MHZ CH84X OUT OF SERVICE.

Letztes NOTAM EDVK
von 13.02.2020 0900Z bis 13.02.2020 1200Z
WARBURG DVOR/DME WRB 113.70MHZ CH84X OUT OF SERVICE.

          aerodata150     Radio38